Marie — ONJC — position and weather

sailwx.info

Track history (hours):
 
Tides and Currents Weather Stations Pressure Air Temp Water Temp Dewpoint Dewpoint Depression Visibility Wind Speed Wind Dir Waves Ship Positions

Marie

Last reported at 2018-Apr-15 23:53 UTC. Time now 2018-Apr-25 16:22 UTC.
Position N 27°48' W 013°48'.
Warning: this ship's position is 9 days out of date.

Length 89 m; draft 5 m.

Type: Ship. MMSI: 205724000.

Date/timePositionNaut miles runAvg speedWind from/ knotsBaromVisibWave heightAir tempDewpointWater temp
2018-Apr-15 23:53N 27°48' W 013°48'710.4
2018-Apr-15 23:12N 27°54' W 013°44'410.2
2018-Apr-15 22:46N 27°58' W 013°41'310.2
2018-Apr-15 22:30N 28°00' W 013°40'510.2
2018-Apr-15 21:59N 28°04' W 013°36'510.2
2018-Apr-15 21:29N 28°08' W 013°33'510.2
2018-Apr-15 20:59N 28°12' W 013°29'510.2
2018-Apr-15 20:30N 28°16' W 013°26'710.3
2018-Apr-15 19:48N 28°22' W 013°21'  
2018-Apr-10 00:53N 37°51' W 009°32'2 6.4
2018-Apr-10 00:31N 37°53' W 009°30'4 7.4
2018-Apr-09 23:59N 37°57' W 009°28'4 8.4
2018-Apr-09 23:30N 38°01' W 009°28'4 7.1
2018-Apr-09 23:00N 38°02' W 009°24'4 7.6
2018-Apr-09 22:30N 38°03' W 009°20'4 8.0
2018-Apr-09 21:59N 38°05' W 009°15'4 7.6
2018-Apr-09 21:30N 38°08' W 009°13'4 8.8
2018-Apr-09 21:01N 38°11' W 009°09'4 8.6
2018-Apr-09 20:31N 38°15' W 009°06'4 8.7
2018-Apr-09 20:00N 38°19' W 009°04'4 8.8
2018-Apr-09 19:30N 38°23' W 009°02'4 9.0
2018-Apr-09 19:00N 38°27' W 008°59'6 0.2
2018-Apr-08 06:32N 38°31' W 008°53'0 0.7
2018-Apr-08 06:23N 38°31' W 008°53'2 5.1
2018-Apr-08 05:55N 38°30' W 008°55'410.0
2018-Apr-08 05:30N 38°27' W 008°59'4 8.7
2018-Apr-08 05:00N 38°23' W 009°02'4 8.2
2018-Apr-08 04:30N 38°21' W 009°07'4 8.9
2018-Apr-08 04:00N 38°21' W 009°12'4 7.6
2018-Apr-08 03:30N 38°22' W 009°17'4 7.1
2018-Apr-08 03:00N 38°25' W 009°20'3 6.7
2018-Apr-08 02:30N 38°27' W 009°24'3 7.0
2018-Apr-08 02:00N 38°29' W 009°27'4 7.2
2018-Apr-08 01:29N 38°31' W 009°31'4 7.3
2018-Apr-08 01:00N 38°34' W 009°34'4 7.5
2018-Apr-08 00:30N 38°36' W 009°38'4 7.3
2018-Apr-08 00:00N 38°38' W 009°41'3 6.7
2018-Apr-07 23:30N 38°41' W 009°43'4 7.3
2018-Apr-07 23:00N 38°45' W 009°44'4 7.2
2018-Apr-07 22:30N 38°49' W 009°44'4 7.3
2018-Apr-07 22:00N 38°52' W 009°44'4 7.9
2018-Apr-07 21:30N 38°56' W 009°44'4 7.3
2018-Apr-07 21:00N 38°60' W 009°43'4 7.3
2018-Apr-07 20:30N 39°04' W 009°44'4 7.3
2018-Apr-07 20:00N 39°07' W 009°46'3 6.2
2018-Apr-07 19:30N 39°10' W 009°44'5 8.8
2018-Apr-07 18:59N 39°14' W 009°45'4 7.5
2018-Apr-07 18:26N 39°18' W 009°45'118 6.7
2018-Apr-07 00:51N 41°07' W 008°46'2 7.1
2018-Apr-07 00:30N 41°09' W 008°44'3 6.0
2018-Apr-07 00:00N 41°11' W 008°42'0 0.7
2018-Apr-06 23:29N 41°12' W 008°41'0 0.0
2018-Apr-06 23:00N 41°12' W 008°41'0 0.0
2018-Apr-06 22:15N 41°12' W 008°41'0 0.0
2018-Apr-06 21:57N 41°12' W 008°41'0 0.0
2018-Apr-06 21:27N 41°12' W 008°41'0 0.0
2018-Apr-06 21:00N 41°12' W 008°41'0 0.0
2018-Apr-06 20:27N 41°12' W 008°41'0 0.0
2018-Apr-06 20:00N 41°12' W 008°41'0 0.0
2018-Apr-06 19:30N 41°12' W 008°41'0 0.0
2018-Apr-06 19:00N 41°12' W 008°41'0 0.0
2018-Apr-06 17:39N 41°12' W 008°41'0 0.0
2018-Apr-06 17:21N 41°12' W 008°41'0 0.0
2018-Apr-06 17:00N 41°12' W 008°41'0 0.0
2018-Apr-06 16:27N 41°12' W 008°41'0 0.0
2018-Apr-06 16:00N 41°12' W 008°41'0 0.0
2018-Apr-06 15:03N 41°12' W 008°41'0 0.0
2018-Apr-06 15:00N 41°12' W 008°41'0 0.0
2018-Apr-06 14:27N 41°12' W 008°41'0 0.0
2018-Apr-06 13:54N 41°12' W 008°41'0 0.0
2018-Apr-06 13:27N 41°12' W 008°41'0 0.0
2018-Apr-06 12:42N 41°12' W 008°41'0 0.0
2018-Apr-06 10:51N 41°12' W 008°41'0 0.0
2018-Apr-06 08:57N 41°12' W 008°41'0 0.0
2018-Apr-06 07:39N 41°12' W 008°41'0 0.0
2018-Apr-06 07:06N 41°12' W 008°41'0 0.0
2018-Apr-06 07:00N 41°12' W 008°41'0 0.0
2018-Apr-06 06:27N 41°12' W 008°41'0 0.0
2018-Apr-06 05:27N 41°12' W 008°41'0 0.0
2018-Apr-06 04:57N 41°12' W 008°41'0 0.0
2018-Apr-06 04:27N 41°12' W 008°41'0 0.0
2018-Apr-06 03:48N 41°12' W 008°41'0 0.0
2018-Apr-06 03:27N 41°12' W 008°41'0 0.0
2018-Apr-06 01:39N 41°12' W 008°41'0 0.0
2018-Apr-06 01:27N 41°12' W 008°41'  
Track history (hours):
 
Tides and Currents Weather Stations Pressure Air Temp Water Temp Dewpoint Dewpoint Depression Visibility Wind Speed Wind Dir Waves Ship Positions

Marie

Last reported at 2018-Apr-15 23:53 UTC. Time now 2018-Apr-25 16:22 UTC.
Position N 27°48' W 013°48'.
Warning: this ship's position is 9 days out of date.

Length 89 m; draft 5 m.

Type: Ship. MMSI: 205724000.

Date/timePositionNaut miles runAvg speedWind from/ knotsBaromVisibWave heightAir tempDewpointWater temp
2018-Apr-15 23:53N 27°48' W 013°48'710.4
2018-Apr-15 23:12N 27°54' W 013°44'410.2
2018-Apr-15 22:46N 27°58' W 013°41'310.2
2018-Apr-15 22:30N 28°00' W 013°40'510.2
2018-Apr-15 21:59N 28°04' W 013°36'510.2
2018-Apr-15 21:29N 28°08' W 013°33'510.2
2018-Apr-15 20:59N 28°12' W 013°29'510.2
2018-Apr-15 20:30N 28°16' W 013°26'710.3
2018-Apr-15 19:48N 28°22' W 013°21'  
2018-Apr-10 00:53N 37°51' W 009°32'2 6.4
2018-Apr-10 00:31N 37°53' W 009°30'4 7.4
2018-Apr-09 23:59N 37°57' W 009°28'4 8.4
2018-Apr-09 23:30N 38°01' W 009°28'4 7.1
2018-Apr-09 23:00N 38°02' W 009°24'4 7.6
2018-Apr-09 22:30N 38°03' W 009°20'4 8.0
2018-Apr-09 21:59N 38°05' W 009°15'4 7.6
2018-Apr-09 21:30N 38°08' W 009°13'4 8.8
2018-Apr-09 21:01N 38°11' W 009°09'4 8.6
2018-Apr-09 20:31N 38°15' W 009°06'4 8.7
2018-Apr-09 20:00N 38°19' W 009°04'4 8.8
2018-Apr-09 19:30N 38°23' W 009°02'4 9.0
2018-Apr-09 19:00N 38°27' W 008°59'6 0.2
2018-Apr-08 06:32N 38°31' W 008°53'0 0.7
2018-Apr-08 06:23N 38°31' W 008°53'2 5.1
2018-Apr-08 05:55N 38°30' W 008°55'410.0
2018-Apr-08 05:30N 38°27' W 008°59'4 8.7
2018-Apr-08 05:00N 38°23' W 009°02'4 8.2
2018-Apr-08 04:30N 38°21' W 009°07'4 8.9
2018-Apr-08 04:00N 38°21' W 009°12'4 7.6
2018-Apr-08 03:30N 38°22' W 009°17'4 7.1
2018-Apr-08 03:00N 38°25' W 009°20'3 6.7
2018-Apr-08 02:30N 38°27' W 009°24'3 7.0
2018-Apr-08 02:00N 38°29' W 009°27'4 7.2
2018-Apr-08 01:29N 38°31' W 009°31'4 7.3
2018-Apr-08 01:00N 38°34' W 009°34'4 7.5
2018-Apr-08 00:30N 38°36' W 009°38'4 7.3
2018-Apr-08 00:00N 38°38' W 009°41'3 6.7
2018-Apr-07 23:30N 38°41' W 009°43'4 7.3
2018-Apr-07 23:00N 38°45' W 009°44'4 7.2
2018-Apr-07 22:30N 38°49' W 009°44'4 7.3
2018-Apr-07 22:00N 38°52' W 009°44'4 7.9
2018-Apr-07 21:30N 38°56' W 009°44'4 7.3
2018-Apr-07 21:00N 38°60' W 009°43'4 7.3
2018-Apr-07 20:30N 39°04' W 009°44'4 7.3
2018-Apr-07 20:00N 39°07' W 009°46'3 6.2
2018-Apr-07 19:30N 39°10' W 009°44'5 8.8
2018-Apr-07 18:59N 39°14' W 009°45'4 7.5
2018-Apr-07 18:26N 39°18' W 009°45'118 6.7
2018-Apr-07 00:51N 41°07' W 008°46'2 7.1
2018-Apr-07 00:30N 41°09' W 008°44'3 6.0
2018-Apr-07 00:00N 41°11' W 008°42'0 0.7
2018-Apr-06 23:29N 41°12' W 008°41'0 0.0
2018-Apr-06 23:00N 41°12' W 008°41'0 0.0
2018-Apr-06 22:15N 41°12' W 008°41'0 0.0
2018-Apr-06 21:57N 41°12' W 008°41'0 0.0
2018-Apr-06 21:27N 41°12' W 008°41'0 0.0
2018-Apr-06 21:00N 41°12' W 008°41'0 0.0
2018-Apr-06 20:27N 41°12' W 008°41'0 0.0
2018-Apr-06 20:00N 41°12' W 008°41'0 0.0
2018-Apr-06 19:30N 41°12' W 008°41'0 0.0
2018-Apr-06 19:00N 41°12' W 008°41'0 0.0
2018-Apr-06 17:39N 41°12' W 008°41'0 0.0
2018-Apr-06 17:21N 41°12' W 008°41'0 0.0
2018-Apr-06 17:00N 41°12' W 008°41'0 0.0
2018-Apr-06 16:27N 41°12' W 008°41'0 0.0
2018-Apr-06 16:00N 41°12' W 008°41'0 0.0
2018-Apr-06 15:03N 41°12' W 008°41'0 0.0
2018-Apr-06 15:00N 41°12' W 008°41'0 0.0
2018-Apr-06 14:27N 41°12' W 008°41'0 0.0
2018-Apr-06 13:54N 41°12' W 008°41'0 0.0
2018-Apr-06 13:27N 41°12' W 008°41'0 0.0
2018-Apr-06 12:42N 41°12' W 008°41'0 0.0
2018-Apr-06 10:51N 41°12' W 008°41'0 0.0
2018-Apr-06 08:57N 41°12' W 008°41'0 0.0
2018-Apr-06 07:39N 41°12' W 008°41'0 0.0
2018-Apr-06 07:06N 41°12' W 008°41'0 0.0
2018-Apr-06 07:00N 41°12' W 008°41'0 0.0
2018-Apr-06 06:27N 41°12' W 008°41'0 0.0
2018-Apr-06 05:27N 41°12' W 008°41'0 0.0
2018-Apr-06 04:57N 41°12' W 008°41'0 0.0
2018-Apr-06 04:27N 41°12' W 008°41'0 0.0
2018-Apr-06 03:48N 41°12' W 008°41'0 0.0
2018-Apr-06 03:27N 41°12' W 008°41'0 0.0
2018-Apr-06 01:39N 41°12' W 008°41'0 0.0
2018-Apr-06 01:27N 41°12' W 008°41'  

Dump ship's entire track history